Palmer, Illinois
Current Conditions -  °F | °C
As of 7:15 PM on Tuesday 27 Jan 2015 (Local Time) from KTAZ Reporting Station
Overcast Overcast  
Wind Chill: -4°   Ceiling: 2000
Heat Index: -1°   Visibility: 10mi
Dew Point: -3°   Wind: 5mph
Humidity: 86%   Direction: 50°NE
Pressure: 30.24"   Gusts: NA
Location:  39.46°N, 89.4°W
Report Text: KTAZ 280115Z AUTO 05004KT 10SM OVC020 M01/M03 A3024 RMK AO2
Loading
Personal Weather Stations






























Interactive Weather Map New forecast layout! Learn more

10-Day Weather Forecast

Advertisements
Track Severe Weather on mobile